TNCM

Sint Maarten/Princess Juliana International Airport

Airport
ICAO code
TNCM
IATA Code
SXM
Summary
ICAO Region
CARSAM
ICAO Territory
Location

Simpson Bay, Sint Maarten

Serving
Philipsburg
Elevation
13 ft
Coordinates
18° 2' 29" N , 63° 6' 41" W
Metar
Observation
TNCM 141200Z 06005KT 030V100 9999 FEW020 29/25 Q1016 NOSIG
Station
Juliana Airport, Saint Maarten
Date/Time
2022-08-14 12:00:00
Wind direction
60°
Wind speed
05 kts
Lowest cloud amount
few clouds
Temperature
29°C
Dew point
25°C
Humidity
79%
QNH
1016 hPa
Weather condition
n/a

Princess Juliana International Airport also known as Sint Maarten International Airport serves the Dutch part of the island of Saint Martin. There is also an airport on the French side of the island near Marigot, called Aéroport de Grand Case or L'Espérance Airport.

Runways

Designator Length Width Surface Rops
10/28 2180 45 ASPH-CONC Yes/Yes
9/27 2349 45 ASP Yes/Yes

SKYbrary Partners:

Safety knowledge contributed by: